ALH weather

Albany Airport
Albany, Western Australia, Australia

Public forecast

Using degrees Celsius for public forecast. Weather courtesy of forecast.io.

METAR (pilot weather report)

Retrieved 2019/03/20 12:30 UTC (25 minutes ago):

YABA 201230Z AUTO 14008KT 9999 // SCT011 OVC017 20/18 Q1016

TAF (pilot weather forecast)

Closest forecast is Perth Jandakot Airport, 196.2 nm (363.4 km) NNW. Retrieved 2019/03/20 12:00 UTC (55 minutes ago):

TAF YPJT 201033Z 2012/2106 23010KT 9999 -FU NSC FM201700 09012G20KT CAVOK FM210000 36005KT CAVOK FM210400 25010KT CAVOK